createdAt,value
2022-12-20T00:01:23.030Z,12.66
2022-12-20T00:03:51.522Z,12.63
2022-12-20T00:06:18.987Z,12.67
2022-12-20T00:08:46.038Z,12.73
2022-12-20T00:11:12.947Z,12.79
2022-12-20T00:13:39.723Z,12.71
2022-12-20T00:16:06.376Z,12.79
2022-12-20T00:18:33.258Z,12.77
2022-12-20T00:21:01.494Z,12.73
2022-12-20T00:23:29.809Z,12.71
2022-12-20T00:26:07.539Z,12.72
2022-12-20T00:28:35.642Z,12.71
2022-12-20T00:31:04.224Z,12.72
2022-12-20T00:33:30.957Z,12.70
2022-12-20T00:35:57.830Z,12.73
2022-12-20T00:38:25.487Z,12.68
2022-12-20T00:41:04.002Z,12.69
2022-12-20T00:43:31.609Z,12.67
2022-12-20T00:45:58.804Z,12.68
2022-12-20T00:48:25.376Z,12.68
2022-12-20T00:50:52.953Z,12.68
2022-12-20T00:53:26.055Z,12.60
2022-12-20T00:55:53.021Z,12.59
2022-12-20T00:58:20.418Z,12.53
2022-12-20T01:00:52.173Z,12.54
2022-12-20T01:03:22.809Z,12.50
2022-12-20T01:05:57.207Z,12.56
2022-12-20T01:08:24.386Z,12.60
2022-12-20T01:11:02.504Z,12.53
2022-12-20T01:13:30.211Z,12.43
2022-12-20T01:15:57.374Z,12.41
2022-12-20T01:18:23.962Z,12.49
2022-12-20T01:21:01.017Z,12.37
2022-12-20T01:23:27.527Z,12.41
2022-12-20T01:25:54.061Z,12.38
2022-12-20T01:28:21.027Z,12.44
2022-12-20T01:30:47.547Z,12.41
2022-12-20T01:33:14.035Z,12.43
2022-12-20T01:35:40.569Z,12.40
2022-12-20T01:38:07.083Z,12.41
2022-12-20T01:40:33.674Z,12.39
2022-12-20T01:43:00.178Z,12.38
2022-12-20T01:45:30.997Z,12.30
2022-12-20T01:47:59.900Z,12.28
2022-12-20T01:50:26.759Z,12.38
2022-12-20T01:52:53.588Z,12.34
2022-12-20T01:55:26.660Z,12.39
2022-12-20T01:58:12.097Z,12.35
2022-12-20T02:00:39.316Z,12.38
2022-12-20T02:03:08.549Z,12.36
2022-12-20T02:05:38.411Z,12.28
2022-12-20T02:08:06.800Z,12.37
2022-12-20T02:11:02.280Z,12.31
2022-12-20T02:13:55.134Z,12.24
2022-12-20T02:16:28.014Z,12.23
2022-12-20T02:19:31.831Z,12.20
2022-12-20T02:22:22.527Z,12.24
2022-12-20T02:25:12.553Z,12.22
2022-12-20T02:27:48.838Z,12.33
2022-12-20T02:30:25.463Z,12.22
2022-12-20T02:32:59.355Z,12.20
2022-12-20T02:35:31.182Z,12.23
2022-12-20T02:38:00.648Z,12.19
2022-12-20T02:40:32.445Z,12.24
2022-12-20T02:43:02.990Z,12.27
2022-12-20T02:45:36.803Z,12.30
2022-12-20T02:48:08.054Z,12.16
2022-12-20T02:50:45.859Z,12.10
2022-12-20T02:53:15.026Z,12.13
2022-12-20T02:56:10.235Z,12.13
2022-12-20T02:58:49.912Z,12.20
2022-12-20T03:01:47.885Z,12.26
2022-12-20T03:04:15.744Z,12.23
2022-12-20T03:07:06.882Z,12.28
2022-12-20T03:09:36.637Z,12.21
2022-12-20T03:12:03.754Z,12.23
2022-12-20T03:14:30.369Z,12.30
2022-12-20T03:16:57.554Z,12.24
2022-12-20T03:19:24.664Z,12.15
2022-12-20T03:21:51.664Z,12.19
2022-12-20T03:24:18.370Z,12.20
2022-12-20T03:26:45.264Z,12.21
2022-12-20T03:29:11.818Z,12.25
2022-12-20T03:31:38.594Z,12.28
2022-12-20T03:34:05.673Z,12.27
2022-12-20T03:36:32.702Z,12.22
2022-12-20T03:38:59.264Z,12.24
2022-12-20T03:41:26.183Z,12.26
2022-12-20T03:43:52.839Z,12.28
2022-12-20T03:46:19.611Z,12.22
2022-12-20T03:48:46.197Z,12.27
2022-12-20T03:51:12.729Z,12.21
2022-12-20T03:53:39.253Z,12.29
2022-12-20T03:56:06.212Z,12.27
2022-12-20T03:58:32.745Z,12.28
2022-12-20T04:00:59.791Z,12.32
2022-12-20T04:03:26.472Z,12.38
2022-12-20T04:05:53.132Z,12.46
2022-12-20T04:08:19.785Z,12.49
2022-12-20T04:11:04.828Z,12.52
2022-12-20T04:13:31.338Z,12.56
2022-12-20T04:16:00.617Z,12.56
2022-12-20T04:18:27.916Z,12.66
2022-12-20T04:20:56.207Z,12.70
2022-12-20T04:23:22.695Z,12.69
2022-12-20T04:25:49.273Z,12.68
2022-12-20T04:28:15.830Z,12.74
2022-12-20T04:30:42.398Z,12.66
2022-12-20T04:33:08.966Z,12.68
2022-12-20T04:35:37.260Z,12.64
2022-12-20T04:38:04.624Z,12.66
2022-12-20T04:40:31.235Z,12.63
2022-12-20T04:42:57.776Z,12.60
2022-12-20T04:45:24.265Z,12.54
2022-12-20T04:47:50.799Z,12.48
2022-12-20T04:50:19.103Z,12.60
2022-12-20T04:53:04.818Z,12.53
2022-12-20T04:55:31.958Z,12.54
2022-12-20T04:58:05.319Z,12.50
2022-12-20T05:00:34.261Z,12.55
2022-12-20T05:03:01.295Z,12.53
2022-12-20T05:05:28.100Z,12.53
2022-12-20T05:07:55.137Z,12.54
2022-12-20T05:10:21.715Z,12.53
2022-12-20T05:12:48.419Z,12.55
2022-12-20T05:15:15.021Z,12.57
2022-12-20T05:17:41.534Z,12.56
2022-12-20T05:20:08.685Z,12.52
2022-12-20T05:22:53.518Z,12.55
2022-12-20T05:25:38.476Z,12.61
2022-12-20T05:28:05.330Z,12.59
2022-12-20T05:30:31.828Z,12.55
2022-12-20T05:32:58.326Z,12.57
2022-12-20T05:35:25.032Z,12.59
2022-12-20T05:37:51.620Z,12.58
2022-12-20T05:40:18.450Z,12.55
2022-12-20T05:42:44.993Z,12.58
2022-12-20T05:45:11.547Z,12.58
2022-12-20T05:47:39.091Z,12.62
2022-12-20T05:50:06.713Z,12.61
2022-12-20T05:52:33.216Z,12.60
2022-12-20T05:55:00.007Z,12.56
2022-12-20T05:57:26.554Z,12.63
2022-12-20T05:59:53.119Z,12.67
2022-12-20T06:02:19.760Z,12.68
2022-12-20T06:04:46.387Z,12.64
2022-12-20T06:07:13.298Z,12.65
2022-12-20T06:09:39.776Z,12.62
2022-12-20T06:12:06.523Z,12.66
2022-12-20T06:14:33.110Z,12.68
2022-12-20T06:16:59.637Z,12.73
2022-12-20T06:19:26.412Z,12.65
2022-12-20T06:21:53.079Z,12.64
2022-12-20T06:24:19.676Z,12.67
2022-12-20T06:26:46.254Z,12.68
2022-12-20T06:29:14.300Z,12.69
2022-12-20T06:31:41.263Z,12.73
2022-12-20T06:34:08.445Z,12.66
2022-12-20T06:36:35.203Z,12.68
2022-12-20T06:39:07.593Z,12.72
2022-12-20T06:41:36.791Z,12.76
2022-12-20T06:44:03.329Z,12.74
2022-12-20T06:46:29.889Z,12.70
2022-12-20T06:48:57.335Z,12.74
2022-12-20T06:51:24.128Z,12.79
2022-12-20T06:53:50.935Z,12.75
2022-12-20T06:56:17.527Z,12.76
2022-12-20T06:58:45.688Z,12.79
2022-12-20T07:01:12.291Z,12.81
2022-12-20T07:03:39.432Z,12.79
2022-12-20T07:06:06.365Z,12.74
2022-12-20T07:08:32.897Z,12.73
2022-12-20T07:11:07.202Z,12.80
2022-12-20T07:13:34.361Z,12.74
2022-12-20T07:16:03.405Z,12.75
2022-12-20T07:18:30.089Z,12.81
2022-12-20T07:21:01.310Z,12.75
2022-12-20T07:23:28.126Z,12.78
2022-12-20T07:25:58.551Z,12.88
2022-12-20T07:28:26.214Z,12.80
2022-12-20T07:30:53.090Z,12.78
2022-12-20T07:33:19.884Z,12.81
2022-12-20T07:35:52.431Z,12.81
2022-12-20T07:38:20.801Z,12.83
2022-12-20T07:40:47.259Z,12.85
2022-12-20T07:43:13.778Z,12.79
2022-12-20T07:45:40.547Z,12.84
2022-12-20T07:48:12.360Z,12.83
2022-12-20T07:50:41.890Z,12.86
2022-12-20T07:53:09.462Z,12.86
2022-12-20T07:55:37.723Z,12.88
2022-12-20T07:58:08.805Z,12.88
2022-12-20T08:00:37.456Z,12.94
2022-12-20T08:03:12.903Z,12.89
2022-12-20T08:05:44.295Z,12.99
2022-12-20T08:08:11.290Z,12.99
2022-12-20T08:10:38.852Z,13.04
2022-12-20T08:13:06.502Z,13.05
2022-12-20T08:15:34.996Z,13.11
2022-12-20T08:18:02.218Z,13.11
2022-12-20T08:20:28.952Z,13.10
2022-12-20T08:22:55.455Z,13.08
2022-12-20T08:25:22.025Z,13.09
2022-12-20T08:27:49.595Z,13.10
2022-12-20T08:30:16.333Z,13.15
2022-12-20T08:32:43.406Z,13.13
2022-12-20T08:35:10.828Z,13.12
2022-12-20T08:37:37.362Z,13.12
2022-12-20T08:40:04.532Z,13.15
2022-12-20T08:42:31.073Z,13.11
2022-12-20T08:44:57.581Z,13.14
2022-12-20T08:47:24.137Z,13.25
2022-12-20T08:49:50.661Z,13.30
2022-12-20T08:52:17.193Z,13.34
2022-12-20T08:54:43.919Z,13.26
2022-12-20T08:57:10.419Z,13.26
2022-12-20T08:59:36.993Z,13.34
2022-12-20T09:02:03.736Z,13.41
2022-12-20T09:04:30.612Z,13.47
2022-12-20T09:06:57.170Z,13.35
2022-12-20T09:09:23.865Z,13.41
2022-12-20T09:11:50.401Z,13.37
2022-12-20T09:14:18.072Z,13.47
2022-12-20T09:16:44.583Z,13.53
2022-12-20T09:19:13.035Z,13.54
2022-12-20T09:21:39.988Z,13.59
2022-12-20T09:24:07.055Z,13.64
2022-12-20T09:26:35.175Z,13.59
2022-12-20T09:29:02.249Z,13.60
2022-12-20T09:31:29.092Z,13.69
2022-12-20T09:33:57.931Z,13.68
2022-12-20T09:36:27.259Z,13.76
2022-12-20T09:38:54.723Z,13.81
2022-12-20T09:41:38.304Z,13.73
2022-12-20T09:44:30.758Z,13.68
2022-12-20T09:47:10.048Z,13.80
2022-12-20T09:49:41.745Z,13.88
2022-12-20T09:52:33.152Z,13.88
2022-12-20T09:55:02.825Z,14.05
2022-12-20T09:57:43.839Z,13.98
2022-12-20T10:00:19.452Z,13.92
2022-12-20T10:03:09.356Z,13.92
2022-12-20T10:05:42.245Z,14.02
2022-12-20T10:08:50.861Z,14.08
2022-12-20T10:11:26.487Z,14.03
2022-12-20T10:14:16.539Z,14.16
2022-12-20T10:16:47.040Z,14.12
2022-12-20T10:19:39.951Z,14.14
2022-12-20T10:22:29.562Z,14.09
2022-12-20T10:25:16.092Z,14.10
2022-12-20T10:27:47.562Z,14.19
2022-12-20T10:30:23.351Z,14.18
2022-12-20T10:32:53.903Z,14.21
2022-12-20T10:35:33.970Z,14.20
2022-12-20T10:38:09.146Z,14.19
2022-12-20T10:43:36.656Z,14.05
2022-12-20T10:46:08.163Z,14.15
2022-12-20T10:48:37.281Z,14.17
2022-12-20T10:51:16.600Z,14.25
2022-12-20T10:54:01.174Z,14.11
2022-12-20T10:56:38.712Z,14.22
2022-12-20T10:59:17.695Z,14.18
2022-12-20T11:01:46.986Z,14.32
2022-12-20T11:04:30.795Z,14.30
2022-12-20T11:06:58.522Z,14.35
2022-12-20T11:09:31.292Z,14.29
2022-12-20T11:12:14.748Z,14.27
2022-12-20T11:14:43.957Z,14.30
2022-12-20T11:17:25.496Z,14.35
2022-12-20T11:20:08.843Z,14.41
2022-12-20T11:22:47.455Z,14.38
2022-12-20T11:25:23.066Z,14.44
2022-12-20T11:28:10.560Z,14.33
2022-12-20T11:30:54.220Z,14.38
2022-12-20T11:33:43.905Z,14.35
2022-12-20T11:36:36.763Z,14.42
2022-12-20T11:39:20.384Z,14.53
2022-12-20T11:42:01.792Z,14.47
2022-12-20T11:44:42.860Z,14.47
2022-12-20T11:47:44.556Z,14.53
2022-12-20T11:50:31.575Z,14.63
2022-12-20T11:53:04.523Z,14.62
2022-12-20T11:55:34.943Z,14.72
2022-12-20T11:58:19.627Z,14.66
2022-12-20T12:00:57.259Z,14.67
2022-12-20T12:03:36.023Z,14.60
2022-12-20T12:06:12.055Z,14.78
2022-12-20T12:08:38.509Z,14.67
2022-12-20T12:14:29.036Z,14.72
2022-12-20T12:17:04.297Z,14.75
2022-12-20T12:19:32.805Z,14.70
2022-12-20T12:22:12.175Z,14.69
2022-12-20T12:24:48.989Z,14.77
2022-12-20T12:27:23.766Z,14.73
2022-12-20T12:29:53.162Z,14.68
2022-12-20T12:32:25.304Z,14.76
2022-12-20T12:35:20.856Z,14.72
2022-12-20T12:38:02.206Z,14.64
2022-12-20T12:40:28.699Z,14.67
2022-12-20T12:43:10.268Z,14.73
2022-12-20T12:45:52.328Z,14.70
2022-12-20T12:48:25.087Z,14.71
2022-12-20T12:50:54.425Z,14.69
2022-12-20T12:53:29.284Z,14.58
2022-12-20T12:56:12.685Z,14.55
2022-12-20T12:58:48.820Z,14.64
2022-12-20T13:01:57.255Z,14.62
2022-12-20T13:04:27.928Z,14.62
2022-12-20T13:06:59.929Z,14.67
2022-12-20T13:09:26.437Z,14.73
2022-12-20T13:12:00.352Z,14.65
2022-12-20T13:14:27.852Z,14.72
2022-12-20T13:17:12.296Z,14.72
2022-12-20T13:19:48.405Z,14.52
2022-12-20T13:22:18.030Z,14.66
2022-12-20T13:24:59.980Z,14.61
2022-12-20T13:27:28.546Z,14.60
2022-12-20T13:29:59.721Z,14.56
2022-12-20T13:32:47.478Z,14.61
2022-12-20T13:35:26.706Z,14.63
2022-12-20T13:37:55.372Z,14.54
2022-12-20T13:40:43.703Z,14.67
2022-12-20T13:43:19.167Z,14.61
2022-12-20T13:45:53.130Z,14.66
2022-12-20T13:48:26.454Z,14.64
2022-12-20T13:50:57.430Z,14.81
2022-12-20T13:53:29.876Z,14.80
2022-12-20T13:55:56.546Z,14.85
2022-12-20T13:58:28.752Z,14.87
2022-12-20T14:01:13.762Z,14.81
2022-12-20T14:03:47.870Z,14.83
2022-12-20T14:06:20.238Z,14.81
2022-12-20T14:08:51.782Z,14.82
2022-12-20T14:11:26.847Z,14.84
2022-12-20T14:14:01.846Z,14.85
2022-12-20T14:16:33.330Z,14.81
2022-12-20T14:19:05.667Z,14.79
2022-12-20T14:21:36.814Z,14.77
2022-12-20T14:24:04.204Z,14.91
2022-12-20T14:26:45.675Z,14.85
2022-12-20T14:29:15.916Z,14.94
2022-12-20T14:31:48.548Z,14.90
2022-12-20T14:34:36.573Z,14.94
2022-12-20T14:37:27.836Z,14.98
2022-12-20T14:40:24.176Z,14.92
2022-12-20T14:42:50.750Z,14.86
2022-12-20T14:45:25.649Z,14.89
2022-12-20T14:48:06.652Z,14.95
2022-12-20T14:50:36.889Z,14.92
2022-12-20T14:53:12.180Z,14.85
2022-12-20T14:55:44.923Z,14.92
2022-12-20T14:58:34.690Z,14.98
2022-12-20T15:01:21.944Z,14.90
2022-12-20T15:03:54.274Z,14.81
2022-12-20T15:06:35.102Z,14.79
2022-12-20T15:09:02.137Z,14.66
2022-12-20T15:11:28.852Z,14.76
2022-12-20T15:13:56.746Z,14.83
2022-12-20T15:16:29.436Z,14.78
2022-12-20T15:18:58.412Z,14.75
2022-12-20T15:21:35.498Z,14.78
2022-12-20T15:24:08.080Z,14.68
2022-12-20T15:26:35.897Z,14.48
2022-12-20T15:29:02.616Z,14.65
2022-12-20T15:31:33.644Z,14.71
2022-12-20T15:34:04.454Z,14.66
2022-12-20T15:36:31.972Z,14.58
2022-12-20T15:39:14.924Z,14.51
2022-12-20T15:41:46.329Z,14.55
2022-12-20T15:44:16.082Z,14.57
2022-12-20T15:46:43.999Z,14.54
2022-12-20T15:49:17.387Z,14.41
2022-12-20T15:51:45.338Z,14.50
2022-12-20T15:54:18.716Z,14.42
2022-12-20T15:56:45.217Z,14.39
2022-12-20T15:59:40.285Z,14.20
2022-12-20T16:01:59.629Z,14.13
2022-12-20T16:04:28.593Z,14.05
2022-12-20T16:06:55.351Z,14.10
2022-12-20T16:09:25.491Z,14.12
2022-12-20T16:11:52.515Z,14.04
2022-12-20T16:14:21.359Z,13.97
2022-12-20T16:16:50.017Z,13.95
2022-12-20T16:19:17.416Z,13.92
2022-12-20T16:21:47.448Z,13.81
2022-12-20T16:24:15.858Z,13.82
2022-12-20T16:26:42.431Z,13.80
2022-12-20T16:29:09.013Z,13.79
2022-12-20T16:31:42.276Z,13.76
2022-12-20T16:34:18.636Z,13.70
2022-12-20T16:36:46.496Z,13.70
2022-12-20T16:39:13.247Z,13.77
2022-12-20T16:41:41.312Z,13.75
2022-12-20T16:44:14.252Z,13.70
2022-12-20T16:46:41.081Z,13.65
2022-12-20T16:49:14.993Z,13.58
2022-12-20T16:51:48.588Z,13.53
2022-12-20T16:54:21.286Z,13.56
2022-12-20T16:56:56.003Z,13.53
2022-12-20T16:59:23.504Z,13.54
2022-12-20T17:01:53.507Z,13.50
2022-12-20T17:04:21.248Z,13.45
2022-12-20T17:06:48.378Z,13.49
2022-12-20T17:12:00.153Z,13.57
2022-12-20T17:14:27.274Z,13.53
2022-12-20T17:16:53.863Z,13.56
2022-12-20T17:19:20.421Z,13.57
2022-12-20T17:24:33.499Z,13.60
2022-12-20T17:27:00.801Z,13.59
2022-12-20T17:29:27.393Z,13.56
2022-12-20T17:31:54.135Z,13.54
2022-12-20T17:34:22.045Z,13.58
2022-12-20T17:36:50.395Z,13.58
2022-12-20T17:39:17.770Z,13.56
2022-12-20T17:41:45.118Z,13.57
2022-12-20T17:44:23.819Z,13.64
2022-12-20T17:46:50.929Z,13.65
2022-12-20T17:49:17.541Z,13.67
2022-12-20T17:51:44.511Z,13.69
2022-12-20T17:54:20.690Z,13.72
2022-12-20T17:56:47.840Z,13.72
2022-12-20T17:59:14.571Z,13.76
2022-12-20T18:01:42.915Z,13.79
2022-12-20T18:04:12.288Z,13.79
2022-12-20T18:06:41.011Z,13.72
2022-12-20T18:09:13.917Z,13.79
2022-12-20T18:11:40.403Z,13.75
2022-12-20T18:14:06.954Z,13.71
2022-12-20T18:16:39.253Z,13.67
2022-12-20T18:19:07.405Z,13.70
2022-12-20T18:21:34.210Z,13.74
2022-12-20T18:24:01.294Z,13.70
2022-12-20T18:26:32.750Z,13.66
2022-12-20T18:29:01.938Z,13.67
2022-12-20T18:31:32.401Z,13.69
2022-12-20T18:33:59.500Z,13.77
2022-12-20T18:36:29.099Z,13.70
2022-12-20T18:38:57.869Z,13.66
2022-12-20T18:41:27.165Z,13.69
2022-12-20T18:43:58.113Z,13.81
2022-12-20T18:46:25.489Z,13.77
2022-12-20T18:48:55.616Z,13.71
2022-12-20T18:51:25.214Z,13.62
2022-12-20T18:53:54.778Z,13.63
2022-12-20T18:56:28.801Z,13.66
2022-12-20T18:58:57.309Z,13.69
2022-12-20T19:01:27.051Z,13.75
2022-12-20T19:03:54.504Z,13.77
2022-12-20T19:06:22.010Z,13.69
2022-12-20T19:08:49.291Z,13.68
2022-12-20T19:11:18.779Z,13.61
2022-12-20T19:13:45.737Z,13.64
2022-12-20T19:16:15.659Z,13.64
2022-12-20T19:18:43.514Z,13.66
2022-12-20T19:21:11.548Z,13.65
2022-12-20T19:23:39.379Z,13.68
2022-12-20T19:26:08.961Z,13.63
2022-12-20T19:28:36.114Z,13.59
2022-12-20T19:31:17.332Z,13.57
2022-12-20T19:33:48.005Z,13.66
2022-12-20T19:36:17.096Z,13.66
2022-12-20T19:38:48.235Z,13.57
2022-12-20T19:41:14.869Z,13.55
2022-12-20T19:43:42.072Z,13.53
2022-12-20T19:46:09.783Z,13.59
2022-12-20T19:48:37.344Z,13.66
2022-12-20T19:51:06.540Z,13.73
2022-12-20T19:53:33.277Z,13.62
2022-12-20T19:56:00.110Z,13.67
2022-12-20T19:58:26.736Z,13.67
2022-12-20T20:00:53.452Z,13.58
2022-12-20T20:03:21.467Z,13.59
2022-12-20T20:05:49.101Z,13.63
2022-12-20T20:08:15.934Z,13.58
2022-12-20T20:10:42.811Z,13.57
2022-12-20T20:13:09.325Z,13.60
2022-12-20T20:15:35.896Z,13.57
2022-12-20T20:18:03.342Z,13.54
2022-12-20T20:20:29.886Z,13.57
2022-12-20T20:22:56.390Z,13.57
2022-12-20T20:25:22.892Z,13.59
2022-12-20T20:27:49.433Z,13.54
2022-12-20T20:30:16.145Z,13.41
2022-12-20T20:32:42.770Z,13.42
2022-12-20T20:35:10.993Z,13.44
2022-12-20T20:37:37.935Z,13.56
2022-12-20T20:40:05.321Z,13.61
2022-12-20T20:42:31.880Z,13.53
2022-12-20T20:44:58.474Z,13.49
2022-12-20T20:47:24.941Z,13.57
2022-12-20T20:49:52.940Z,13.57
2022-12-20T20:52:19.788Z,13.45
2022-12-20T20:54:46.498Z,13.37
2022-12-20T20:57:13.019Z,13.38
2022-12-20T20:59:39.602Z,13.44
2022-12-20T21:02:06.285Z,13.38
2022-12-20T21:04:32.817Z,13.50
2022-12-20T21:06:59.267Z,13.41
2022-12-20T21:09:25.807Z,13.36
2022-12-20T21:11:52.557Z,13.29
2022-12-20T21:14:36.187Z,13.41
2022-12-20T21:17:06.220Z,13.41
2022-12-20T21:19:32.747Z,13.33
2022-12-20T21:21:59.321Z,13.31
2022-12-20T21:24:25.908Z,13.27
2022-12-20T21:26:53.790Z,13.23
2022-12-20T21:29:20.274Z,13.24
2022-12-20T21:31:47.081Z,13.22
2022-12-20T21:34:13.840Z,13.20
2022-12-20T21:36:40.377Z,13.19
2022-12-20T21:39:07.299Z,13.18
2022-12-20T21:41:33.752Z,13.19
2022-12-20T21:44:01.419Z,13.35
2022-12-20T21:46:29.503Z,13.33
2022-12-20T21:48:56.167Z,13.31
2022-12-20T21:51:25.376Z,13.30
2022-12-20T21:54:00.085Z,13.32
2022-12-20T21:56:28.516Z,13.25
2022-12-20T21:58:55.318Z,13.21
2022-12-20T22:01:24.262Z,13.22
2022-12-20T22:03:52.448Z,13.25
2022-12-20T22:06:19.508Z,13.19
2022-12-20T22:08:46.459Z,13.22
2022-12-20T22:11:16.132Z,13.28
2022-12-20T22:13:42.904Z,13.21
2022-12-20T22:16:15.522Z,13.20
2022-12-20T22:18:43.529Z,13.20
2022-12-20T22:21:12.811Z,13.19
2022-12-20T22:23:40.976Z,13.19
2022-12-20T22:26:10.980Z,13.21
2022-12-20T22:28:38.768Z,13.15
2022-12-20T22:31:10.267Z,13.19
2022-12-20T22:33:38.389Z,13.23
2022-12-20T22:36:06.831Z,13.27
2022-12-20T22:38:33.735Z,13.18
2022-12-20T22:41:17.979Z,13.21
2022-12-20T22:43:46.012Z,13.30
2022-12-20T22:46:14.028Z,13.17
2022-12-20T22:48:41.582Z,13.20
2022-12-20T22:51:09.899Z,13.30
2022-12-20T22:53:37.541Z,13.21
2022-12-20T22:56:05.153Z,13.20
2022-12-20T22:58:31.884Z,13.24
2022-12-20T23:01:00.534Z,13.19
2022-12-20T23:03:27.937Z,13.11
2022-12-20T23:06:00.705Z,13.21
2022-12-20T23:08:30.333Z,13.13
2022-12-20T23:11:15.375Z,13.07
2022-12-20T23:14:01.151Z,13.05
2022-12-20T23:16:28.436Z,13.01
2022-12-20T23:18:59.411Z,12.99
2022-12-20T23:21:45.270Z,13.03
2022-12-20T23:24:12.968Z,12.99
2022-12-20T23:26:40.373Z,13.00
2022-12-20T23:29:08.267Z,12.97
2022-12-20T23:31:35.755Z,12.93
2022-12-20T23:34:03.531Z,12.87
2022-12-20T23:36:30.483Z,12.74
2022-12-20T23:38:57.030Z,12.76
2022-12-20T23:41:23.748Z,12.83
2022-12-20T23:43:50.596Z,12.77
2022-12-20T23:46:19.558Z,12.77
2022-12-20T23:48:46.148Z,12.78
2022-12-20T23:51:13.405Z,12.77
2022-12-20T23:53:39.915Z,12.65
2022-12-20T23:56:19.311Z,12.71
2022-12-20T23:58:49.857Z,12.96
